createdAt,value
2018-07-20T00:01:42.977Z,66.50
2018-07-20T00:04:11.389Z,67.00
2018-07-20T00:06:40.391Z,67.40
2018-07-20T00:09:09.471Z,67.10
2018-07-20T00:11:38.582Z,67.40
2018-07-20T00:14:07.030Z,68.00
2018-07-20T00:16:35.528Z,68.50
2018-07-20T00:19:03.977Z,69.20
2018-07-20T00:21:32.373Z,69.00
2018-07-20T00:24:00.776Z,68.90
2018-07-20T00:26:29.240Z,68.90
2018-07-20T00:28:57.645Z,69.10
2018-07-20T00:31:26.733Z,69.40
2018-07-20T00:33:55.158Z,69.30
2018-07-20T00:36:23.691Z,69.30
2018-07-20T00:38:52.090Z,69.50
2018-07-20T00:41:20.497Z,69.20
2018-07-20T00:43:49.048Z,68.50
2018-07-20T00:46:17.512Z,68.80
2018-07-20T00:48:45.930Z,69.50
2018-07-20T00:51:14.404Z,69.30
2018-07-20T00:53:42.796Z,69.40
2018-07-20T00:56:11.217Z,69.80
2018-07-20T00:58:39.638Z,69.60
2018-07-20T01:01:08.773Z,69.20
2018-07-20T01:03:37.233Z,69.10
2018-07-20T01:06:06.392Z,68.90
2018-07-20T01:08:34.921Z,69.10
2018-07-20T01:11:03.555Z,69.60
2018-07-20T01:13:32.120Z,70.10
2018-07-20T01:16:00.896Z,69.80
2018-07-20T01:18:29.937Z,70.00
2018-07-20T01:20:58.570Z,70.10
2018-07-20T01:23:26.975Z,70.60
2018-07-20T01:25:56.085Z,70.40
2018-07-20T01:28:24.511Z,70.70
2018-07-20T01:30:52.942Z,71.80
2018-07-20T01:33:21.360Z,71.20
2018-07-20T01:35:50.279Z,71.20
2018-07-20T01:38:18.684Z,70.90
2018-07-20T01:40:47.834Z,71.90
2018-07-20T01:43:16.260Z,72.60
2018-07-20T01:45:44.871Z,72.70
2018-07-20T01:48:13.301Z,72.10
2018-07-20T01:50:41.731Z,72.00
2018-07-20T01:53:10.160Z,72.50
2018-07-20T01:55:39.224Z,72.90
2018-07-20T01:58:07.624Z,72.60
2018-07-20T02:00:42.720Z,72.50
2018-07-20T02:03:11.145Z,72.90
2018-07-20T02:05:39.657Z,72.90
2018-07-20T02:08:08.098Z,73.20
2018-07-20T02:10:36.492Z,72.90
2018-07-20T02:13:11.392Z,72.70
2018-07-20T02:15:39.917Z,72.50
2018-07-20T02:18:08.324Z,71.80
2018-07-20T02:20:36.754Z,71.90
2018-07-20T02:23:05.189Z,71.80
2018-07-20T02:25:33.658Z,71.70
2018-07-20T02:28:02.076Z,71.40
2018-07-20T02:30:30.501Z,71.40
2018-07-20T02:32:59.003Z,71.40
2018-07-20T02:35:27.376Z,70.80
2018-07-20T02:37:55.826Z,71.50
2018-07-20T02:40:24.401Z,72.40
2018-07-20T02:42:53.995Z,73.10
2018-07-20T02:45:22.513Z,74.30
2018-07-20T02:47:50.921Z,74.80
2018-07-20T02:50:19.369Z,75.20
2018-07-20T02:52:47.809Z,75.40
2018-07-20T02:55:17.009Z,74.70
2018-07-20T02:57:45.416Z,74.80
2018-07-20T03:00:13.812Z,74.50
2018-07-20T03:02:42.225Z,74.60
2018-07-20T03:05:10.661Z,74.50
2018-07-20T03:07:39.147Z,74.50
2018-07-20T03:10:07.564Z,74.30
2018-07-20T03:12:36.049Z,74.90
2018-07-20T03:15:04.508Z,75.40
2018-07-20T03:17:37.934Z,75.20
2018-07-20T03:20:06.403Z,75.10
2018-07-20T03:22:34.793Z,74.70
2018-07-20T03:25:03.253Z,73.80
2018-07-20T03:27:31.694Z,74.10
2018-07-20T03:30:00.120Z,74.20
2018-07-20T03:32:28.644Z,74.40
2018-07-20T03:34:57.045Z,75.70
2018-07-20T03:37:25.528Z,76.00
2018-07-20T03:39:53.960Z,75.70
2018-07-20T03:42:22.412Z,75.30
2018-07-20T03:44:50.804Z,75.00
2018-07-20T03:47:19.904Z,73.00
2018-07-20T03:49:48.396Z,69.90
2018-07-20T03:52:16.909Z,69.90
2018-07-20T03:54:45.544Z,70.30
2018-07-20T03:57:14.236Z,69.90
2018-07-20T03:59:42.657Z,69.70
2018-07-20T04:02:11.248Z,70.00
2018-07-20T04:04:40.225Z,69.30
2018-07-20T04:07:08.824Z,68.80
2018-07-20T04:09:37.349Z,69.10
2018-07-20T04:12:05.848Z,68.90
2018-07-20T04:14:34.235Z,68.10
2018-07-20T04:17:02.637Z,67.70
2018-07-20T04:19:31.070Z,67.70
2018-07-20T04:21:59.627Z,67.60
2018-07-20T04:24:28.085Z,67.50
2018-07-20T04:26:56.598Z,66.60
2018-07-20T04:29:25.817Z,67.60
2018-07-20T04:31:54.217Z,67.60
2018-07-20T04:34:22.604Z,68.30
2018-07-20T04:36:50.995Z,68.20
2018-07-20T04:39:19.413Z,67.50
2018-07-20T04:41:47.856Z,67.50
2018-07-20T04:44:16.843Z,66.80
2018-07-20T04:46:45.284Z,67.60
2018-07-20T04:49:13.672Z,67.30
2018-07-20T04:51:42.092Z,66.80
2018-07-20T04:54:10.591Z,67.00
2018-07-20T04:56:39.000Z,67.20
2018-07-20T04:59:07.404Z,67.90
2018-07-20T05:01:36.087Z,68.20
2018-07-20T05:04:04.500Z,68.40
2018-07-20T05:06:33.732Z,68.20
2018-07-20T05:09:02.148Z,69.10
2018-07-20T05:11:30.661Z,67.90
2018-07-20T05:13:59.099Z,67.60
2018-07-20T05:16:27.689Z,67.70
2018-07-20T05:18:56.101Z,67.80
2018-07-20T05:21:24.516Z,68.70
2018-07-20T05:23:53.084Z,67.80
2018-07-20T05:26:21.485Z,67.50
2018-07-20T05:28:49.925Z,67.80
2018-07-20T05:31:18.408Z,67.90
2018-07-20T05:33:46.847Z,67.10
2018-07-20T05:36:15.237Z,67.00
2018-07-20T05:38:44.221Z,66.30
2018-07-20T05:41:12.751Z,65.60
2018-07-20T05:43:41.185Z,66.40
2018-07-20T05:46:09.661Z,66.00
2018-07-20T05:48:38.100Z,66.20
2018-07-20T05:51:07.040Z,65.90
2018-07-20T05:53:35.597Z,65.60
2018-07-20T05:56:04.008Z,65.70
2018-07-20T05:58:33.241Z,64.40
2018-07-20T06:01:01.881Z,65.10
2018-07-20T06:03:30.597Z,64.10
2018-07-20T06:05:59.100Z,64.00
2018-07-20T06:08:28.200Z,64.70
2018-07-20T06:10:56.719Z,64.50
2018-07-20T06:13:25.173Z,64.60
2018-07-20T06:15:53.553Z,64.40
2018-07-20T06:18:22.009Z,64.80
2018-07-20T06:20:50.416Z,63.70
2018-07-20T06:23:18.927Z,62.80
2018-07-20T06:25:47.332Z,63.30
2018-07-20T06:28:15.777Z,63.10
2018-07-20T06:30:44.215Z,62.40
2018-07-20T06:33:12.704Z,62.20
2018-07-20T06:35:41.267Z,61.40
2018-07-20T06:38:09.695Z,61.50
2018-07-20T06:40:38.117Z,61.50
2018-07-20T06:43:06.671Z,60.90
2018-07-20T06:45:35.517Z,65.50
2018-07-20T06:48:04.103Z,62.00
2018-07-20T06:50:32.648Z,64.10
2018-07-20T06:53:01.076Z,62.80
2018-07-20T06:55:29.735Z,61.90
2018-07-20T06:57:58.375Z,61.00
2018-07-20T07:00:26.907Z,60.20
2018-07-20T07:02:56.016Z,62.00
2018-07-20T07:05:24.464Z,61.30
2018-07-20T07:07:53.815Z,62.10
2018-07-20T07:10:22.865Z,60.50
2018-07-20T07:12:51.298Z,58.20
2018-07-20T07:15:20.191Z,58.60
2018-07-20T07:17:48.726Z,59.90
2018-07-20T07:20:17.200Z,59.50
2018-07-20T07:22:45.632Z,58.70
2018-07-20T07:25:14.801Z,59.30
2018-07-20T07:27:43.184Z,59.50
2018-07-20T07:30:11.808Z,57.40
2018-07-20T07:32:40.248Z,58.10
2018-07-20T07:35:08.804Z,59.60
2018-07-20T07:37:37.204Z,57.90
2018-07-20T07:40:05.861Z,58.50
2018-07-20T07:42:34.480Z,57.90
2018-07-20T07:47:31.645Z,58.90
2018-07-20T07:50:00.230Z,57.00
2018-07-20T07:52:28.851Z,58.80
2018-07-20T07:54:57.389Z,59.40
2018-07-20T07:57:25.873Z,59.10
2018-07-20T07:59:54.660Z,56.90
2018-07-20T08:02:23.221Z,58.20
2018-07-20T08:04:51.676Z,57.90
2018-07-20T08:07:20.166Z,57.40
2018-07-20T08:09:48.685Z,55.90
2018-07-20T08:12:17.260Z,57.10
2018-07-20T08:14:45.695Z,55.60
2018-07-20T08:17:14.171Z,55.20
2018-07-20T08:19:42.625Z,55.40
2018-07-20T08:22:11.066Z,54.60
2018-07-20T08:24:40.080Z,54.30
2018-07-20T08:27:08.505Z,54.30
2018-07-20T08:29:37.127Z,52.90
2018-07-20T08:32:06.237Z,54.10
2018-07-20T08:34:34.646Z,53.50
2018-07-20T08:37:03.162Z,51.60
2018-07-20T08:39:31.628Z,52.60
2018-07-20T08:42:00.122Z,52.80
2018-07-20T08:44:28.668Z,52.80
2018-07-20T08:46:57.099Z,50.80
2018-07-20T08:49:26.045Z,50.30
2018-07-20T08:51:54.547Z,50.40
2018-07-20T08:54:23.142Z,50.70
2018-07-20T08:56:51.569Z,49.10
2018-07-20T08:59:20.550Z,50.00
2018-07-20T09:01:49.056Z,49.60
2018-07-20T09:04:17.509Z,49.30
2018-07-20T09:06:45.987Z,49.20
2018-07-20T09:09:14.450Z,49.70
2018-07-20T09:11:43.121Z,47.50
2018-07-20T09:14:11.625Z,48.40
2018-07-20T09:16:40.109Z,46.70
2018-07-20T09:19:08.583Z,47.80
2018-07-20T09:21:36.993Z,48.50
2018-07-20T09:24:05.476Z,46.80
2018-07-20T09:26:34.568Z,47.10
2018-07-20T09:29:03.077Z,46.60
2018-07-20T09:31:31.524Z,47.60
2018-07-20T09:34:00.080Z,48.50
2018-07-20T09:36:28.553Z,47.10
2018-07-20T09:38:57.107Z,48.40
2018-07-20T09:41:25.560Z,47.10
2018-07-20T09:43:54.029Z,46.00
2018-07-20T09:46:22.454Z,47.30
2018-07-20T09:48:50.964Z,46.40
2018-07-20T09:51:19.945Z,46.90
2018-07-20T09:53:48.509Z,46.50
2018-07-20T09:56:18.295Z,45.30
2018-07-20T09:58:46.887Z,45.70
2018-07-20T10:01:15.354Z,47.20
2018-07-20T10:03:43.810Z,46.20
2018-07-20T10:06:12.263Z,45.40
2018-07-20T10:08:41.458Z,45.00
2018-07-20T10:11:10.021Z,43.80
2018-07-20T10:13:39.216Z,45.00
2018-07-20T10:16:07.656Z,44.90
2018-07-20T10:18:36.112Z,44.30
2018-07-20T10:21:04.619Z,45.40
2018-07-20T10:23:33.135Z,43.70
2018-07-20T10:26:01.664Z,44.50
2018-07-20T10:28:30.740Z,44.60
2018-07-20T10:30:59.346Z,43.30
2018-07-20T10:33:27.778Z,45.50
2018-07-20T10:35:56.258Z,43.90
2018-07-20T10:38:31.176Z,45.30
2018-07-20T10:40:59.644Z,43.50
2018-07-20T10:43:28.078Z,45.50
2018-07-20T10:45:56.549Z,45.50
2018-07-20T10:48:25.080Z,46.90
2018-07-20T10:50:53.824Z,45.00
2018-07-20T10:53:22.412Z,43.40
2018-07-20T10:55:50.853Z,44.10
2018-07-20T10:58:20.116Z,43.90
2018-07-20T11:00:48.584Z,44.20
2018-07-20T11:03:17.203Z,43.60
2018-07-20T11:05:45.680Z,42.40
2018-07-20T11:08:14.320Z,43.00
2018-07-20T11:10:42.849Z,42.30
2018-07-20T11:13:11.365Z,41.80
2018-07-20T11:15:40.539Z,42.20
2018-07-20T11:18:09.047Z,43.60
2018-07-20T11:20:37.599Z,42.90
2018-07-20T11:23:06.157Z,42.90
2018-07-20T11:25:34.635Z,42.00
2018-07-20T11:28:03.229Z,40.50
2018-07-20T11:33:00.676Z,40.10
2018-07-20T11:35:29.247Z,41.40
2018-07-20T11:37:58.028Z,41.10
2018-07-20T11:40:26.562Z,41.20
2018-07-20T11:42:55.069Z,39.70
2018-07-20T11:45:23.677Z,41.20
2018-07-20T11:47:52.201Z,40.60
2018-07-20T11:50:20.635Z,39.60
2018-07-20T11:52:49.092Z,38.20
2018-07-20T11:55:17.565Z,39.40
2018-07-20T11:57:46.012Z,39.60
2018-07-20T12:00:14.449Z,40.60
2018-07-20T12:02:42.925Z,40.00
2018-07-20T12:05:11.364Z,39.60
2018-07-20T12:10:08.084Z,37.80
2018-07-20T12:12:37.213Z,39.20
2018-07-20T12:15:06.732Z,38.70
2018-07-20T12:17:35.189Z,40.00
2018-07-20T12:20:03.715Z,39.40
2018-07-20T12:22:32.168Z,39.10
2018-07-20T12:25:00.668Z,39.80
2018-07-20T12:27:29.153Z,40.20
2018-07-20T12:29:57.626Z,41.90
2018-07-20T12:32:26.158Z,40.50
2018-07-20T12:34:54.611Z,40.80
2018-07-20T12:37:23.795Z,39.90
2018-07-20T12:39:52.285Z,40.00
2018-07-20T12:42:21.449Z,40.30
2018-07-20T12:44:49.914Z,38.90
2018-07-20T12:47:18.612Z,39.80
2018-07-20T12:49:47.347Z,38.60
2018-07-20T12:55:08.990Z,37.80
2018-07-20T12:57:37.562Z,37.50
2018-07-20T13:00:06.043Z,36.90
2018-07-20T13:02:34.569Z,37.40
2018-07-20T13:05:03.013Z,35.80
2018-07-20T13:07:31.522Z,36.30
2018-07-20T13:10:00.015Z,37.10
2018-07-20T13:12:29.196Z,37.90
2018-07-20T13:14:57.787Z,36.40
2018-07-20T13:17:26.304Z,38.20
2018-07-20T13:22:23.105Z,36.40
2018-07-20T13:24:52.497Z,37.40
2018-07-20T13:27:20.928Z,36.90
2018-07-20T13:29:49.473Z,35.60
2018-07-20T13:32:18.065Z,35.00
2018-07-20T13:34:46.958Z,34.50
2018-07-20T13:37:15.466Z,34.00
2018-07-20T13:39:43.984Z,35.50
2018-07-20T13:42:12.476Z,34.80
2018-07-20T13:44:41.040Z,35.30
2018-07-20T13:47:09.609Z,36.00
2018-07-20T13:49:38.092Z,35.70
2018-07-20T13:52:07.143Z,37.10
2018-07-20T13:54:35.723Z,35.60
2018-07-20T13:57:04.216Z,35.00
2018-07-20T13:59:32.702Z,35.80
2018-07-20T14:02:01.172Z,36.00
2018-07-20T14:04:29.945Z,36.30
2018-07-20T14:06:59.056Z,35.10
2018-07-20T14:09:27.486Z,35.80
2018-07-20T14:11:56.025Z,35.00
2018-07-20T14:27:29.534Z,34.80
2018-07-20T14:29:59.003Z,36.50
2018-07-20T14:32:27.467Z,35.50
2018-07-20T14:34:55.941Z,36.10
2018-07-20T14:37:25.183Z,35.40
2018-07-20T14:39:54.253Z,35.60
2018-07-20T14:42:22.726Z,36.70
2018-07-20T14:44:51.192Z,35.20
2018-07-20T14:47:19.725Z,34.70
2018-07-20T14:49:48.264Z,35.80
2018-07-20T14:52:16.733Z,34.70
2018-07-20T14:54:45.273Z,34.80
2018-07-20T14:57:13.836Z,35.30
2018-07-20T14:59:42.284Z,35.20
2018-07-20T15:02:11.601Z,35.10
2018-07-20T15:04:40.083Z,34.30
2018-07-20T15:07:08.532Z,34.10
2018-07-20T15:09:36.981Z,34.20
2018-07-20T15:12:05.610Z,33.50
2018-07-20T15:14:34.208Z,34.50
2018-07-20T15:17:02.690Z,34.80
2018-07-20T15:21:59.307Z,35.10
2018-07-20T15:24:28.426Z,34.10
2018-07-20T15:26:56.980Z,34.20
2018-07-20T15:29:26.673Z,33.60
2018-07-20T15:31:55.109Z,34.30
2018-07-20T15:34:24.092Z,34.10
2018-07-20T15:36:53.127Z,34.30
2018-07-20T15:39:21.715Z,34.10
2018-07-20T15:41:50.153Z,34.10
2018-07-20T15:44:18.564Z,34.20
2018-07-20T15:46:47.206Z,33.90
2018-07-20T15:49:15.644Z,33.90
2018-07-20T15:54:12.721Z,34.80
2018-07-20T15:56:41.825Z,34.00
2018-07-20T15:59:10.284Z,35.40
2018-07-20T16:01:38.716Z,34.20
2018-07-20T16:04:07.297Z,35.60
2018-07-20T16:06:35.757Z,34.30
2018-07-20T16:09:06.214Z,34.40
2018-07-20T16:11:34.731Z,35.60
2018-07-20T16:14:03.161Z,35.90
2018-07-20T16:16:31.788Z,35.30
2018-07-20T16:19:00.189Z,34.90
2018-07-20T16:21:28.628Z,34.60
2018-07-20T16:23:57.065Z,35.90
2018-07-20T16:26:26.077Z,35.50
2018-07-20T16:28:55.336Z,35.40
2018-07-20T16:31:24.620Z,35.80
2018-07-20T16:36:21.260Z,35.70
2018-07-20T16:38:49.784Z,35.40
2018-07-20T16:41:18.305Z,35.30
2018-07-20T16:43:46.678Z,36.00
2018-07-20T16:46:16.033Z,36.50
2018-07-20T16:48:44.969Z,35.80
2018-07-20T16:51:13.412Z,35.90
2018-07-20T16:53:42.011Z,36.00
2018-07-20T16:56:10.453Z,36.30
2018-07-20T16:58:39.114Z,36.10
2018-07-20T17:01:07.708Z,36.10
2018-07-20T17:03:36.166Z,37.20
2018-07-20T17:06:04.617Z,37.10
2018-07-20T17:08:33.077Z,36.40
2018-07-20T17:11:01.883Z,36.50
2018-07-20T17:13:30.383Z,36.10
2018-07-20T17:15:58.799Z,36.00
2018-07-20T17:18:27.393Z,36.50
2018-07-20T17:20:55.852Z,37.60
2018-07-20T17:23:24.397Z,37.20
2018-07-20T17:25:53.615Z,36.80
2018-07-20T17:28:22.040Z,36.20
2018-07-20T17:30:51.425Z,37.10
2018-07-20T17:33:20.117Z,37.00
2018-07-20T17:35:48.539Z,37.20
2018-07-20T17:38:16.980Z,37.50
2018-07-20T17:40:45.424Z,37.70
2018-07-20T17:43:14.000Z,37.40
2018-07-20T17:45:42.503Z,37.50
2018-07-20T17:48:11.046Z,36.90
2018-07-20T17:50:39.472Z,37.40
2018-07-20T17:53:08.055Z,38.00
2018-07-20T17:55:36.532Z,39.00
2018-07-20T17:58:05.049Z,38.70
2018-07-20T18:00:33.526Z,37.50
2018-07-20T18:03:02.050Z,37.70
2018-07-20T18:05:30.584Z,38.40
2018-07-20T18:07:59.384Z,38.00
2018-07-20T18:10:27.910Z,38.30
2018-07-20T18:12:56.492Z,38.00
2018-07-20T18:15:24.952Z,38.20
2018-07-20T18:17:53.460Z,39.40
2018-07-20T18:20:21.861Z,38.00
2018-07-20T18:22:50.417Z,38.80
2018-07-20T18:25:18.829Z,39.00
2018-07-20T18:27:47.334Z,38.60
2018-07-20T18:30:15.792Z,38.80
2018-07-20T18:32:44.251Z,38.50
2018-07-20T18:35:12.849Z,39.30
2018-07-20T18:37:41.320Z,38.10
2018-07-20T18:40:09.790Z,38.90
2018-07-20T18:42:38.304Z,39.70
2018-07-20T18:45:07.913Z,39.00
2018-07-20T18:47:36.468Z,39.10
2018-07-20T18:50:06.230Z,39.50
2018-07-20T18:52:34.688Z,40.50
2018-07-20T18:55:03.186Z,39.90
2018-07-20T18:57:31.720Z,39.80
2018-07-20T19:00:00.178Z,41.10
2018-07-20T19:02:28.631Z,40.90
2018-07-20T19:04:57.308Z,39.80
2018-07-20T19:07:27.260Z,40.20
2018-07-20T19:09:55.907Z,39.90
2018-07-20T19:12:24.347Z,40.70
2018-07-20T19:14:52.804Z,40.30
2018-07-20T19:17:21.316Z,40.90
2018-07-20T19:19:50.393Z,40.60
2018-07-20T19:22:18.903Z,40.40
2018-07-20T19:24:47.312Z,40.90
2018-07-20T19:27:15.844Z,41.90
2018-07-20T19:29:44.241Z,42.10
2018-07-20T19:32:13.546Z,41.60
2018-07-20T19:34:42.317Z,42.40
2018-07-20T19:37:10.757Z,43.20
2018-07-20T19:39:39.297Z,42.50
2018-07-20T19:42:07.744Z,43.00
2018-07-20T19:44:36.505Z,43.10
2018-07-20T19:47:05.335Z,43.20
2018-07-20T19:49:33.944Z,42.80
2018-07-20T19:52:02.361Z,43.20
2018-07-20T19:54:31.615Z,43.70
2018-07-20T19:57:00.046Z,43.30
2018-07-20T19:59:28.477Z,43.40
2018-07-20T20:01:56.965Z,44.00
2018-07-20T20:04:25.537Z,44.60
2018-07-20T20:06:54.042Z,44.70
2018-07-20T20:09:22.502Z,44.70
2018-07-20T20:11:50.980Z,45.00
2018-07-20T20:14:19.392Z,44.10
2018-07-20T20:16:47.820Z,45.10
2018-07-20T20:19:16.272Z,45.20
2018-07-20T20:21:44.749Z,45.00
2018-07-20T20:24:13.211Z,45.00
2018-07-20T20:26:41.676Z,45.50
2018-07-20T20:29:10.217Z,45.50
2018-07-20T20:31:38.708Z,45.50
2018-07-20T20:34:07.156Z,45.50
2018-07-20T20:36:35.847Z,46.50
2018-07-20T20:39:07.906Z,46.20
2018-07-20T20:41:36.433Z,46.00
2018-07-20T20:44:05.525Z,46.40
2018-07-20T20:46:34.028Z,46.20
2018-07-20T20:49:02.517Z,46.80
2018-07-20T20:51:31.153Z,47.20
2018-07-20T20:53:59.634Z,47.60
2018-07-20T20:56:28.112Z,47.10
2018-07-20T20:58:56.581Z,47.10
2018-07-20T21:01:25.057Z,47.30
2018-07-20T21:03:53.522Z,47.10
2018-07-20T21:06:22.147Z,47.40
2018-07-20T21:08:50.613Z,47.80
2018-07-20T21:11:19.098Z,47.40
2018-07-20T21:13:47.550Z,48.00
2018-07-20T21:16:16.581Z,48.40
2018-07-20T21:18:45.137Z,48.10
2018-07-20T21:21:13.912Z,48.80
2018-07-20T21:23:42.409Z,48.70
2018-07-20T21:26:10.852Z,48.80
2018-07-20T21:28:39.320Z,48.50
2018-07-20T21:31:07.848Z,48.60
2018-07-20T21:33:36.322Z,48.70
2018-07-20T21:36:04.807Z,49.00
2018-07-20T21:38:33.269Z,49.10
2018-07-20T21:41:01.737Z,49.50
2018-07-20T21:43:30.262Z,49.90
2018-07-20T21:45:59.403Z,49.70
2018-07-20T21:48:27.860Z,49.60
2018-07-20T21:50:56.313Z,49.90
2018-07-20T21:53:24.789Z,49.70
2018-07-20T21:55:53.257Z,49.50
2018-07-20T21:58:21.661Z,50.00
2018-07-20T22:00:50.116Z,50.30
2018-07-20T22:03:18.593Z,50.80
2018-07-20T22:05:47.062Z,50.90
2018-07-20T22:08:15.560Z,51.20
2018-07-20T22:10:44.042Z,51.30
2018-07-20T22:13:12.564Z,51.00
2018-07-20T22:15:41.001Z,51.20
2018-07-20T22:18:09.517Z,51.30
2018-07-20T22:20:38.016Z,51.10
2018-07-20T22:23:06.820Z,51.00
2018-07-20T22:25:35.356Z,51.10
2018-07-20T22:28:03.822Z,50.70
2018-07-20T22:30:32.249Z,51.20
2018-07-20T22:33:00.661Z,51.00
2018-07-20T22:35:29.142Z,51.40
2018-07-20T22:37:57.765Z,50.80
2018-07-20T22:40:26.272Z,51.30
2018-07-20T22:42:54.693Z,51.20
2018-07-20T22:45:23.133Z,51.00
2018-07-20T22:47:51.673Z,51.40
2018-07-20T22:50:20.148Z,50.80
2018-07-20T22:52:48.694Z,51.00
2018-07-20T22:55:17.248Z,50.90
2018-07-20T22:57:45.718Z,51.60
2018-07-20T23:00:14.161Z,51.20
2018-07-20T23:02:42.603Z,51.50
2018-07-20T23:05:11.101Z,51.60
2018-07-20T23:10:07.732Z,50.30
2018-07-20T23:12:36.213Z,51.00
2018-07-20T23:15:04.889Z,50.80
2018-07-20T23:17:33.356Z,51.20
2018-07-20T23:20:01.833Z,51.00
2018-07-20T23:22:30.257Z,50.40
2018-07-20T23:24:58.710Z,50.20
2018-07-20T23:27:27.303Z,50.30
2018-07-20T23:29:55.751Z,50.60
2018-07-20T23:32:24.224Z,50.00
2018-07-20T23:34:52.692Z,50.60
2018-07-20T23:37:21.076Z,50.60
2018-07-20T23:39:49.608Z,50.90
2018-07-20T23:42:18.004Z,51.00
2018-07-20T23:44:46.420Z,50.80
2018-07-20T23:47:14.965Z,50.40
2018-07-20T23:49:43.410Z,51.40
2018-07-20T23:52:11.876Z,50.60
2018-07-20T23:54:40.431Z,50.50
2018-07-20T23:57:09.512Z,49.90
2018-07-20T23:59:38.005Z,50.50
